sensor_id;sensor_type;location;lat;lon;timestamp;temperature;humidity
49222;DHT22;35047;37.588;-122.048;2023-11-19T00:00:59;22.70;91.30
49222;DHT22;35047;37.588;-122.048;2023-11-19T00:03:26;22.70;91.20
49222;DHT22;35047;37.588;-122.048;2023-11-19T00:05:52;22.60;91.20
49222;DHT22;35047;37.588;-122.048;2023-11-19T00:08:19;22.60;91.30
49222;DHT22;35047;37.588;-122.048;2023-11-19T00:10:45;22.60;91.20
49222;DHT22;35047;37.588;-122.048;2023-11-19T00:13:12;22.50;91.20
49222;DHT22;35047;37.588;-122.048;2023-11-19T00:15:38;22.50;91.30
49222;DHT22;35047;37.588;-122.048;2023-11-19T00:18:05;22.50;91.50
49222;DHT22;35047;37.588;-122.048;2023-11-19T00:20:31;22.50;91.50
49222;DHT22;35047;37.588;-122.048;2023-11-19T00:22:58;22.50;91.70
49222;DHT22;35047;37.588;-122.048;2023-11-19T00:25:24;22.50;91.70
49222;DHT22;35047;37.588;-122.048;2023-11-19T00:27:51;22.50;91.70
49222;DHT22;35047;37.588;-122.048;2023-11-19T00:30:19;22.50;91.70
49222;DHT22;35047;37.588;-122.048;2023-11-19T00:32:46;22.50;91.80
49222;DHT22;35047;37.588;-122.048;2023-11-19T00:35:12;22.40;91.60
49222;DHT22;35047;37.588;-122.048;2023-11-19T00:37:42;22.40;91.60
49222;DHT22;35047;37.588;-122.048;2023-11-19T00:40:09;22.40;91.80
49222;DHT22;35047;37.588;-122.048;2023-11-19T00:42:36;22.40;92.00
49222;DHT22;35047;37.588;-122.048;2023-11-19T00:45:03;22.40;91.60
49222;DHT22;35047;37.588;-122.048;2023-11-19T00:47:34;22.40;91.60
49222;DHT22;35047;37.588;-122.048;2023-11-19T00:50:02;22.30;91.60
49222;DHT22;35047;37.588;-122.048;2023-11-19T00:52:29;22.30;91.60
49222;DHT22;35047;37.588;-122.048;2023-11-19T00:54:55;22.20;91.60
49222;DHT22;35047;37.588;-122.048;2023-11-19T00:57:22;22.20;91.60
49222;DHT22;35047;37.588;-122.048;2023-11-19T00:59:50;22.20;91.80
49222;DHT22;35047;37.588;-122.048;2023-11-19T01:02:16;22.10;91.70
49222;DHT22;35047;37.588;-122.048;2023-11-19T01:04:43;22.10;91.90
49222;DHT22;35047;37.588;-122.048;2023-11-19T01:07:09;22.10;91.80
49222;DHT22;35047;37.588;-122.048;2023-11-19T01:09:41;22.00;91.70
49222;DHT22;35047;37.588;-122.048;2023-11-19T01:12:07;22.00;91.70
49222;DHT22;35047;37.588;-122.048;2023-11-19T01:14:35;22.00;91.90
49222;DHT22;35047;37.588;-122.048;2023-11-19T01:17:01;21.90;91.80
49222;DHT22;35047;37.588;-122.048;2023-11-19T01:19:28;21.90;91.90
49222;DHT22;35047;37.588;-122.048;2023-11-19T01:21:54;21.90;91.90
49222;DHT22;35047;37.588;-122.048;2023-11-19T01:24:22;21.80;92.00
49222;DHT22;35047;37.588;-122.048;2023-11-19T01:26:48;21.80;92.10
49222;DHT22;35047;37.588;-122.048;2023-11-19T01:29:15;21.80;92.10
49222;DHT22;35047;37.588;-122.048;2023-11-19T01:31:46;21.80;92.10
49222;DHT22;35047;37.588;-122.048;2023-11-19T01:34:13;21.70;92.10
49222;DHT22;35047;37.588;-122.048;2023-11-19T01:36:39;21.70;92.00
49222;DHT22;35047;37.588;-122.048;2023-11-19T01:39:06;21.70;91.90
49222;DHT22;35047;37.588;-122.048;2023-11-19T01:41:36;21.80;91.90
49222;DHT22;35047;37.588;-122.048;2023-11-19T01:44:02;21.80;91.90
49222;DHT22;35047;37.588;-122.048;2023-11-19T01:46:30;21.70;91.70
49222;DHT22;35047;37.588;-122.048;2023-11-19T01:49:00;21.80;91.70
49222;DHT22;35047;37.588;-122.048;2023-11-19T01:51:27;21.70;91.70
49222;DHT22;35047;37.588;-122.048;2023-11-19T01:53:54;21.80;91.90
49222;DHT22;35047;37.588;-122.048;2023-11-19T01:56:23;21.80;91.90
49222;DHT22;35047;37.588;-122.048;2023-11-19T01:58:51;21.80;91.80
49222;DHT22;35047;37.588;-122.048;2023-11-19T02:01:18;21.80;91.80
49222;DHT22;35047;37.588;-122.048;2023-11-19T02:03:46;21.80;91.80
49222;DHT22;35047;37.588;-122.048;2023-11-19T02:06:13;21.80;91.80
49222;DHT22;35047;37.588;-122.048;2023-11-19T02:08:40;21.80;91.80
49222;DHT22;35047;37.588;-122.048;2023-11-19T02:11:06;21.80;91.90
49222;DHT22;35047;37.588;-122.048;2023-11-19T02:13:33;21.80;91.90
49222;DHT22;35047;37.588;-122.048;2023-11-19T02:16:02;21.80;92.00
49222;DHT22;35047;37.588;-122.048;2023-11-19T02:18:29;21.80;92.00
49222;DHT22;35047;37.588;-122.048;2023-11-19T02:20:56;21.70;91.90
49222;DHT22;35047;37.588;-122.048;2023-11-19T02:23:25;21.70;92.10
49222;DHT22;35047;37.588;-122.048;2023-11-19T02:26:32;21.70;92.00
49222;DHT22;35047;37.588;-122.048;2023-11-19T02:29:01;21.60;91.90
49222;DHT22;35047;37.588;-122.048;2023-11-19T02:31:28;21.60;91.90
49222;DHT22;35047;37.588;-122.048;2023-11-19T02:33:55;21.50;91.90
49222;DHT22;35047;37.588;-122.048;2023-11-19T02:36:21;21.50;92.00
49222;DHT22;35047;37.588;-122.048;2023-11-19T02:38:48;21.60;92.10
49222;DHT22;35047;37.588;-122.048;2023-11-19T02:41:14;21.60;92.00
49222;DHT22;35047;37.588;-122.048;2023-11-19T02:43:41;21.50;92.00
49222;DHT22;35047;37.588;-122.048;2023-11-19T02:46:07;21.50;92.00
49222;DHT22;35047;37.588;-122.048;2023-11-19T02:48:37;21.50;92.00
49222;DHT22;35047;37.588;-122.048;2023-11-19T02:51:04;21.50;91.80
49222;DHT22;35047;37.588;-122.048;2023-11-19T02:53:35;21.60;91.80
49222;DHT22;35047;37.588;-122.048;2023-11-19T02:56:03;21.50;91.80
49222;DHT22;35047;37.588;-122.048;2023-11-19T02:59:02;21.50;91.80
49222;DHT22;35047;37.588;-122.048;2023-11-19T03:01:41;21.50;91.70
49222;DHT22;35047;37.588;-122.048;2023-11-19T03:04:09;21.50;91.70
49222;DHT22;35047;37.588;-122.048;2023-11-19T03:06:38;21.50;91.70
49222;DHT22;35047;37.588;-122.048;2023-11-19T03:09:04;21.50;91.60
49222;DHT22;35047;37.588;-122.048;2023-11-19T03:11:36;21.50;91.70
49222;DHT22;35047;37.588;-122.048;2023-11-19T03:14:02;21.50;91.70
49222;DHT22;35047;37.588;-122.048;2023-11-19T03:16:29;21.50;91.70
49222;DHT22;35047;37.588;-122.048;2023-11-19T03:18:55;21.50;91.80
49222;DHT22;35047;37.588;-122.048;2023-11-19T03:21:29;21.50;91.90
49222;DHT22;35047;37.588;-122.048;2023-11-19T03:23:57;21.50;91.90
49222;DHT22;35047;37.588;-122.048;2023-11-19T03:26:27;21.40;91.80
49222;DHT22;35047;37.588;-122.048;2023-11-19T03:28:54;21.40;91.90
49222;DHT22;35047;37.588;-122.048;2023-11-19T03:31:23;21.40;92.10
49222;DHT22;35047;37.588;-122.048;2023-11-19T03:33:49;21.40;92.10
49222;DHT22;35047;37.588;-122.048;2023-11-19T03:36:16;21.50;92.10
49222;DHT22;35047;37.588;-122.048;2023-11-19T03:38:43;21.40;92.20
49222;DHT22;35047;37.588;-122.048;2023-11-19T03:41:14;21.40;92.10
49222;DHT22;35047;37.588;-122.048;2023-11-19T03:43:41;21.40;92.00
49222;DHT22;35047;37.588;-122.048;2023-11-19T03:46:20;21.40;91.90
49222;DHT22;35047;37.588;-122.048;2023-11-19T03:48:47;21.40;91.90
49222;DHT22;35047;37.588;-122.048;2023-11-19T03:51:14;21.40;91.70
49222;DHT22;35047;37.588;-122.048;2023-11-19T03:53:43;21.30;91.60
49222;DHT22;35047;37.588;-122.048;2023-11-19T03:56:10;21.30;91.80
49222;DHT22;35047;37.588;-122.048;2023-11-19T03:58:37;21.20;91.80
49222;DHT22;35047;37.588;-122.048;2023-11-19T04:01:11;21.20;91.80
49222;DHT22;35047;37.588;-122.048;2023-11-19T04:03:41;21.10;91.60
49222;DHT22;35047;37.588;-122.048;2023-11-19T04:06:07;21.00;91.50
49222;DHT22;35047;37.588;-122.048;2023-11-19T04:08:34;21.00;91.90
49222;DHT22;35047;37.588;-122.048;2023-11-19T04:11:05;20.90;91.70
49222;DHT22;35047;37.588;-122.048;2023-11-19T04:13:32;20.90;92.00
49222;DHT22;35047;37.588;-122.048;2023-11-19T04:15:58;20.80;92.10
49222;DHT22;35047;37.588;-122.048;2023-11-19T04:18:24;20.80;92.10
49222;DHT22;35047;37.588;-122.048;2023-11-19T04:20:51;20.80;92.00
49222;DHT22;35047;37.588;-122.048;2023-11-19T04:23:17;20.90;91.90
49222;DHT22;35047;37.588;-122.048;2023-11-19T04:25:44;20.90;91.80
49222;DHT22;35047;37.588;-122.048;2023-11-19T04:28:10;20.80;91.80
49222;DHT22;35047;37.588;-122.048;2023-11-19T04:30:37;20.80;91.60
49222;DHT22;35047;37.588;-122.048;2023-11-19T04:33:03;20.80;91.80
49222;DHT22;35047;37.588;-122.048;2023-11-19T04:35:30;20.80;91.70
49222;DHT22;35047;37.588;-122.048;2023-11-19T04:37:56;20.90;91.40
49222;DHT22;35047;37.588;-122.048;2023-11-19T04:40:23;20.90;91.20
49222;DHT22;35047;37.588;-122.048;2023-11-19T04:42:50;20.90;91.30
49222;DHT22;35047;37.588;-122.048;2023-11-19T04:45:16;20.80;91.30
49222;DHT22;35047;37.588;-122.048;2023-11-19T04:47:43;20.90;91.30
49222;DHT22;35047;37.588;-122.048;2023-11-19T04:50:10;20.90;91.40
49222;DHT22;35047;37.588;-122.048;2023-11-19T04:52:40;20.90;91.40
49222;DHT22;35047;37.588;-122.048;2023-11-19T04:55:06;20.80;91.40
49222;DHT22;35047;37.588;-122.048;2023-11-19T04:57:33;20.80;91.40
49222;DHT22;35047;37.588;-122.048;2023-11-19T05:00:00;20.80;91.50
49222;DHT22;35047;37.588;-122.048;2023-11-19T05:02:27;20.80;91.40
49222;DHT22;35047;37.588;-122.048;2023-11-19T05:04:53;20.80;91.50
49222;DHT22;35047;37.588;-122.048;2023-11-19T05:07:20;20.80;91.30
49222;DHT22;35047;37.588;-122.048;2023-11-19T05:09:46;20.80;91.20
49222;DHT22;35047;37.588;-122.048;2023-11-19T05:12:13;20.80;90.90
49222;DHT22;35047;37.588;-122.048;2023-11-19T05:14:39;20.50;90.40
49222;DHT22;35047;37.588;-122.048;2023-11-19T05:17:12;20.30;90.00
49222;DHT22;35047;37.588;-122.048;2023-11-19T05:19:38;20.10;90.00
49222;DHT22;35047;37.588;-122.048;2023-11-19T05:22:05;20.10;90.20
49222;DHT22;35047;37.588;-122.048;2023-11-19T05:24:32;19.90;90.10
49222;DHT22;35047;37.588;-122.048;2023-11-19T05:26:58;19.90;90.30
49222;DHT22;35047;37.588;-122.048;2023-11-19T05:29:47;19.70;90.20
49222;DHT22;35047;37.588;-122.048;2023-11-19T05:32:17;19.60;90.00
49222;DHT22;35047;37.588;-122.048;2023-11-19T05:34:43;19.50;90.50
49222;DHT22;35047;37.588;-122.048;2023-11-19T05:37:10;19.50;90.50
49222;DHT22;35047;37.588;-122.048;2023-11-19T05:39:36;19.50;90.60
49222;DHT22;35047;37.588;-122.048;2023-11-19T05:42:03;19.50;90.70
49222;DHT22;35047;37.588;-122.048;2023-11-19T05:44:30;19.50;91.00
49222;DHT22;35047;37.588;-122.048;2023-11-19T05:46:57;19.50;90.60
49222;DHT22;35047;37.588;-122.048;2023-11-19T05:49:23;19.50;90.50
49222;DHT22;35047;37.588;-122.048;2023-11-19T05:51:50;19.50;90.70
49222;DHT22;35047;37.588;-122.048;2023-11-19T05:54:17;19.50;90.60
49222;DHT22;35047;37.588;-122.048;2023-11-19T05:56:47;19.60;90.60
49222;DHT22;35047;37.588;-122.048;2023-11-19T05:59:14;19.60;90.50
49222;DHT22;35047;37.588;-122.048;2023-11-19T06:01:46;19.70;90.40
49222;DHT22;35047;37.588;-122.048;2023-11-19T06:04:12;19.70;90.60
49222;DHT22;35047;37.588;-122.048;2023-11-19T06:06:40;19.60;90.10
49222;DHT22;35047;37.588;-122.048;2023-11-19T06:09:06;19.60;89.40
49222;DHT22;35047;37.588;-122.048;2023-11-19T06:11:34;19.70;89.50
49222;DHT22;35047;37.588;-122.048;2023-11-19T06:14:02;19.70;89.30
49222;DHT22;35047;37.588;-122.048;2023-11-19T06:16:31;19.70;88.70
49222;DHT22;35047;37.588;-122.048;2023-11-19T06:18:57;19.70;88.30
49222;DHT22;35047;37.588;-122.048;2023-11-19T06:21:24;19.60;87.60
49222;DHT22;35047;37.588;-122.048;2023-11-19T06:23:51;19.70;87.60
49222;DHT22;35047;37.588;-122.048;2023-11-19T06:26:19;19.70;87.40
49222;DHT22;35047;37.588;-122.048;2023-11-19T06:28:45;19.70;87.10
49222;DHT22;35047;37.588;-122.048;2023-11-19T06:31:12;19.70;87.00
49222;DHT22;35047;37.588;-122.048;2023-11-19T06:33:42;19.70;87.10
49222;DHT22;35047;37.588;-122.048;2023-11-19T06:36:09;19.70;87.10
49222;DHT22;35047;37.588;-122.048;2023-11-19T06:38:35;19.70;86.60
49222;DHT22;35047;37.588;-122.048;2023-11-19T06:41:05;19.70;86.90
49222;DHT22;35047;37.588;-122.048;2023-11-19T06:43:32;19.60;86.40
49222;DHT22;35047;37.588;-122.048;2023-11-19T06:45:59;19.60;86.30
49222;DHT22;35047;37.588;-122.048;2023-11-19T06:48:26;19.60;86.40
49222;DHT22;35047;37.588;-122.048;2023-11-19T06:50:52;19.60;86.20
49222;DHT22;35047;37.588;-122.048;2023-11-19T06:53:19;19.60;85.70
49222;DHT22;35047;37.588;-122.048;2023-11-19T06:55:46;19.50;85.40
49222;DHT22;35047;37.588;-122.048;2023-11-19T06:58:12;19.50;85.10
49222;DHT22;35047;37.588;-122.048;2023-11-19T07:00:39;19.40;84.40
49222;DHT22;35047;37.588;-122.048;2023-11-19T07:03:05;19.40;84.20
49222;DHT22;35047;37.588;-122.048;2023-11-19T07:05:36;19.40;82.70
49222;DHT22;35047;37.588;-122.048;2023-11-19T07:08:08;19.30;83.00
49222;DHT22;35047;37.588;-122.048;2023-11-19T07:10:35;19.30;82.00
49222;DHT22;35047;37.588;-122.048;2023-11-19T07:13:01;19.30;81.60
49222;DHT22;35047;37.588;-122.048;2023-11-19T07:15:31;19.30;82.00
49222;DHT22;35047;37.588;-122.048;2023-11-19T07:17:58;19.20;81.60
49222;DHT22;35047;37.588;-122.048;2023-11-19T07:20:25;19.20;81.30
49222;DHT22;35047;37.588;-122.048;2023-11-19T07:22:53;19.20;81.10
49222;DHT22;35047;37.588;-122.048;2023-11-19T07:25:23;19.20;80.70
49222;DHT22;35047;37.588;-122.048;2023-11-19T07:27:51;19.10;81.10
49222;DHT22;35047;37.588;-122.048;2023-11-19T07:30:17;19.10;81.10
49222;DHT22;35047;37.588;-122.048;2023-11-19T07:32:43;19.10;81.10
49222;DHT22;35047;37.588;-122.048;2023-11-19T07:35:10;19.10;81.30
49222;DHT22;35047;37.588;-122.048;2023-11-19T07:37:37;19.10;80.60
49222;DHT22;35047;37.588;-122.048;2023-11-19T07:40:06;19.00;80.30
49222;DHT22;35047;37.588;-122.048;2023-11-19T07:42:32;19.00;80.40
49222;DHT22;35047;37.588;-122.048;2023-11-19T07:44:59;19.00;80.20
49222;DHT22;35047;37.588;-122.048;2023-11-19T07:47:25;19.00;80.60
49222;DHT22;35047;37.588;-122.048;2023-11-19T07:49:52;18.90;80.90
49222;DHT22;35047;37.588;-122.048;2023-11-19T07:52:18;19.00;80.20
49222;DHT22;35047;37.588;-122.048;2023-11-19T07:54:45;18.90;80.80
49222;DHT22;35047;37.588;-122.048;2023-11-19T07:57:11;18.90;80.90
49222;DHT22;35047;37.588;-122.048;2023-11-19T07:59:37;18.90;81.00
49222;DHT22;35047;37.588;-122.048;2023-11-19T08:02:06;18.90;80.80
49222;DHT22;35047;37.588;-122.048;2023-11-19T08:04:32;18.80;81.20
49222;DHT22;35047;37.588;-122.048;2023-11-19T08:06:59;18.80;81.00
49222;DHT22;35047;37.588;-122.048;2023-11-19T08:09:26;18.80;81.20
49222;DHT22;35047;37.588;-122.048;2023-11-19T08:11:52;18.80;81.30
49222;DHT22;35047;37.588;-122.048;2023-11-19T08:14:20;18.80;81.40
49222;DHT22;35047;37.588;-122.048;2023-11-19T08:16:47;18.80;81.50
49222;DHT22;35047;37.588;-122.048;2023-11-19T08:19:13;18.70;81.40
49222;DHT22;35047;37.588;-122.048;2023-11-19T08:21:40;18.70;81.30
49222;DHT22;35047;37.588;-122.048;2023-11-19T08:24:07;18.70;81.40
49222;DHT22;35047;37.588;-122.048;2023-11-19T08:26:33;18.60;81.70
49222;DHT22;35047;37.588;-122.048;2023-11-19T08:29:00;18.60;81.50
49222;DHT22;35047;37.588;-122.048;2023-11-19T08:31:26;18.60;81.70
49222;DHT22;35047;37.588;-122.048;2023-11-19T08:33:53;18.50;81.90
49222;DHT22;35047;37.588;-122.048;2023-11-19T08:36:19;18.50;81.70
49222;DHT22;35047;37.588;-122.048;2023-11-19T08:38:46;18.50;81.60
49222;DHT22;35047;37.588;-122.048;2023-11-19T08:41:13;18.40;81.30
49222;DHT22;35047;37.588;-122.048;2023-11-19T08:43:40;18.40;81.60
49222;DHT22;35047;37.588;-122.048;2023-11-19T08:46:10;18.40;81.80
49222;DHT22;35047;37.588;-122.048;2023-11-19T08:48:37;18.40;81.40
49222;DHT22;35047;37.588;-122.048;2023-11-19T08:51:04;18.30;81.30
49222;DHT22;35047;37.588;-122.048;2023-11-19T08:53:31;18.30;81.40
49222;DHT22;35047;37.588;-122.048;2023-11-19T08:55:57;18.30;81.50
49222;DHT22;35047;37.588;-122.048;2023-11-19T08:58:24;18.30;81.40
49222;DHT22;35047;37.588;-122.048;2023-11-19T09:00:50;18.20;81.30
49222;DHT22;35047;37.588;-122.048;2023-11-19T09:03:17;18.20;81.40
49222;DHT22;35047;37.588;-122.048;2023-11-19T09:05:43;18.20;81.50
49222;DHT22;35047;37.588;-122.048;2023-11-19T09:08:10;18.20;81.60
49222;DHT22;35047;37.588;-122.048;2023-11-19T09:10:38;18.20;81.70
49222;DHT22;35047;37.588;-122.048;2023-11-19T09:13:04;18.20;81.10
49222;DHT22;35047;37.588;-122.048;2023-11-19T09:15:31;18.20;81.00
49222;DHT22;35047;37.588;-122.048;2023-11-19T09:17:57;18.10;81.20
49222;DHT22;35047;37.588;-122.048;2023-11-19T09:20:24;18.10;81.00
49222;DHT22;35047;37.588;-122.048;2023-11-19T09:22:50;18.10;80.50
49222;DHT22;35047;37.588;-122.048;2023-11-19T09:25:17;18.10;80.80
49222;DHT22;35047;37.588;-122.048;2023-11-19T09:27:44;18.10;81.00
49222;DHT22;35047;37.588;-122.048;2023-11-19T09:30:11;18.00;80.90
49222;DHT22;35047;37.588;-122.048;2023-11-19T09:32:38;18.00;80.70
49222;DHT22;35047;37.588;-122.048;2023-11-19T09:35:05;18.00;80.50
49222;DHT22;35047;37.588;-122.048;2023-11-19T09:37:32;18.00;80.80
49222;DHT22;35047;37.588;-122.048;2023-11-19T09:39:59;18.00;80.70
49222;DHT22;35047;37.588;-122.048;2023-11-19T09:42:26;18.00;80.90
49222;DHT22;35047;37.588;-122.048;2023-11-19T09:44:53;18.00;81.10
49222;DHT22;35047;37.588;-122.048;2023-11-19T09:47:21;18.00;80.90
49222;DHT22;35047;37.588;-122.048;2023-11-19T09:49:48;17.90;81.40
49222;DHT22;35047;37.588;-122.048;2023-11-19T09:52:15;18.00;81.60
49222;DHT22;35047;37.588;-122.048;2023-11-19T09:54:41;17.90;80.90
49222;DHT22;35047;37.588;-122.048;2023-11-19T09:57:08;17.80;80.70
49222;DHT22;35047;37.588;-122.048;2023-11-19T09:59:36;17.80;80.50
49222;DHT22;35047;37.588;-122.048;2023-11-19T10:02:03;17.70;80.40
49222;DHT22;35047;37.588;-122.048;2023-11-19T10:04:30;17.70;81.20
49222;DHT22;35047;37.588;-122.048;2023-11-19T10:06:58;17.70;81.30
49222;DHT22;35047;37.588;-122.048;2023-11-19T10:09:25;17.60;81.30
49222;DHT22;35047;37.588;-122.048;2023-11-19T10:11:52;17.60;81.30
49222;DHT22;35047;37.588;-122.048;2023-11-19T10:14:22;17.50;81.50
49222;DHT22;35047;37.588;-122.048;2023-11-19T10:16:49;17.40;81.60
49222;DHT22;35047;37.588;-122.048;2023-11-19T10:19:21;17.40;81.50
49222;DHT22;35047;37.588;-122.048;2023-11-19T10:21:48;17.40;81.80
49222;DHT22;35047;37.588;-122.048;2023-11-19T10:24:15;17.30;82.20
49222;DHT22;35047;37.588;-122.048;2023-11-19T10:26:41;17.30;82.10
49222;DHT22;35047;37.588;-122.048;2023-11-19T10:29:08;17.30;82.30
49222;DHT22;35047;37.588;-122.048;2023-11-19T10:31:34;17.30;82.70
49222;DHT22;35047;37.588;-122.048;2023-11-19T10:34:01;17.30;82.90
49222;DHT22;35047;37.588;-122.048;2023-11-19T10:36:40;17.20;82.70
49222;DHT22;35047;37.588;-122.048;2023-11-19T10:39:07;17.10;82.70
49222;DHT22;35047;37.588;-122.048;2023-11-19T10:41:35;17.10;82.50
49222;DHT22;35047;37.588;-122.048;2023-11-19T10:44:01;17.10;82.00
49222;DHT22;35047;37.588;-122.048;2023-11-19T10:46:41;17.00;82.30
49222;DHT22;35047;37.588;-122.048;2023-11-19T10:49:09;17.00;82.30
49222;DHT22;35047;37.588;-122.048;2023-11-19T10:51:36;16.90;82.50
49222;DHT22;35047;37.588;-122.048;2023-11-19T10:54:06;16.90;83.00
49222;DHT22;35047;37.588;-122.048;2023-11-19T10:56:33;16.90;83.50
49222;DHT22;35047;37.588;-122.048;2023-11-19T10:59:00;16.90;83.80
49222;DHT22;35047;37.588;-122.048;2023-11-19T11:01:42;16.90;83.70
49222;DHT22;35047;37.588;-122.048;2023-11-19T11:04:22;16.80;83.40
49222;DHT22;35047;37.588;-122.048;2023-11-19T11:06:49;16.80;84.30
49222;DHT22;35047;37.588;-122.048;2023-11-19T11:09:17;16.70;83.80
49222;DHT22;35047;37.588;-122.048;2023-11-19T11:11:47;16.70;84.20
49222;DHT22;35047;37.588;-122.048;2023-11-19T11:14:14;16.70;84.70
49222;DHT22;35047;37.588;-122.048;2023-11-19T11:16:43;16.70;84.30
49222;DHT22;35047;37.588;-122.048;2023-11-19T11:19:11;16.70;84.40
49222;DHT22;35047;37.588;-122.048;2023-11-19T11:21:41;16.60;84.20
49222;DHT22;35047;37.588;-122.048;2023-11-19T11:24:25;16.60;83.80
49222;DHT22;35047;37.588;-122.048;2023-11-19T11:27:16;16.60;83.50
49222;DHT22;35047;37.588;-122.048;2023-11-19T11:30:26;16.50;83.80
49222;DHT22;35047;37.588;-122.048;2023-11-19T11:33:37;16.50;83.80
49222;DHT22;35047;37.588;-122.048;2023-11-19T11:36:17;16.40;83.80
49222;DHT22;35047;37.588;-122.048;2023-11-19T11:38:48;16.50;83.90
49222;DHT22;35047;37.588;-122.048;2023-11-19T11:41:23;16.40;83.40
49222;DHT22;35047;37.588;-122.048;2023-11-19T11:43:55;16.40;83.50
49222;DHT22;35047;37.588;-122.048;2023-11-19T11:49:05;16.30;83.40
49222;DHT22;35047;37.588;-122.048;2023-11-19T11:54:25;16.30;83.10
49222;DHT22;35047;37.588;-122.048;2023-11-19T11:57:08;16.20;83.30
49222;DHT22;35047;37.588;-122.048;2023-11-19T11:59:50;16.20;83.50
49222;DHT22;35047;37.588;-122.048;2023-11-19T12:02:19;16.20;83.50
49222;DHT22;35047;37.588;-122.048;2023-11-19T12:04:49;16.20;84.00
49222;DHT22;35047;37.588;-122.048;2023-11-19T12:07:21;16.20;84.70
49222;DHT22;35047;37.588;-122.048;2023-11-19T12:10:08;16.20;85.00
49222;DHT22;35047;37.588;-122.048;2023-11-19T12:12:37;16.20;84.80
49222;DHT22;35047;37.588;-122.048;2023-11-19T12:15:09;16.10;84.40
49222;DHT22;35047;37.588;-122.048;2023-11-19T12:17:41;16.10;84.60
49222;DHT22;35047;37.588;-122.048;2023-11-19T12:20:10;16.10;84.60
49222;DHT22;35047;37.588;-122.048;2023-11-19T12:22:41;16.00;84.10
49222;DHT22;35047;37.588;-122.048;2023-11-19T12:25:10;16.00;84.60
49222;DHT22;35047;37.588;-122.048;2023-11-19T12:27:42;16.00;83.70
49222;DHT22;35047;37.588;-122.048;2023-11-19T12:30:09;15.90;83.60
49222;DHT22;35047;37.588;-122.048;2023-11-19T12:32:40;15.90;84.10
49222;DHT22;35047;37.588;-122.048;2023-11-19T12:35:08;15.90;84.50
49222;DHT22;35047;37.588;-122.048;2023-11-19T12:37:52;15.80;84.40
49222;DHT22;35047;37.588;-122.048;2023-11-19T12:40:25;15.80;85.20
49222;DHT22;35047;37.588;-122.048;2023-11-19T12:42:53;15.80;84.70
49222;DHT22;35047;37.588;-122.048;2023-11-19T12:45:21;15.80;84.60
49222;DHT22;35047;37.588;-122.048;2023-11-19T12:47:49;15.70;84.30
49222;DHT22;35047;37.588;-122.048;2023-11-19T12:50:18;15.70;84.40
49222;DHT22;35047;37.588;-122.048;2023-11-19T12:52:57;15.70;84.20
49222;DHT22;35047;37.588;-122.048;2023-11-19T12:55:26;15.60;84.20
49222;DHT22;35047;37.588;-122.048;2023-11-19T12:57:53;15.60;84.00
49222;DHT22;35047;37.588;-122.048;2023-11-19T13:00:23;15.60;83.40
49222;DHT22;35047;37.588;-122.048;2023-11-19T13:02:52;15.60;83.60
49222;DHT22;35047;37.588;-122.048;2023-11-19T13:05:26;15.60;84.30
49222;DHT22;35047;37.588;-122.048;2023-11-19T13:10:29;15.50;84.60
49222;DHT22;35047;37.588;-122.048;2023-11-19T13:13:06;15.50;84.60
49222;DHT22;35047;37.588;-122.048;2023-11-19T13:15:33;15.40;84.60
49222;DHT22;35047;37.588;-122.048;2023-11-19T13:18:00;15.40;84.70
49222;DHT22;35047;37.588;-122.048;2023-11-19T13:20:28;15.40;85.00
49222;DHT22;35047;37.588;-122.048;2023-11-19T13:23:05;15.40;84.90
49222;DHT22;35047;37.588;-122.048;2023-11-19T13:25:35;15.30;84.60
49222;DHT22;35047;37.588;-122.048;2023-11-19T13:28:01;15.30;84.60
49222;DHT22;35047;37.588;-122.048;2023-11-19T13:30:28;15.30;84.70
49222;DHT22;35047;37.588;-122.048;2023-11-19T13:32:55;15.30;84.20
49222;DHT22;35047;37.588;-122.048;2023-11-19T13:35:22;15.30;83.90
49222;DHT22;35047;37.588;-122.048;2023-11-19T13:37:49;15.30;84.30
49222;DHT22;35047;37.588;-122.048;2023-11-19T13:40:15;15.20;84.30
49222;DHT22;35047;37.588;-122.048;2023-11-19T13:42:43;15.20;84.30
49222;DHT22;35047;37.588;-122.048;2023-11-19T13:45:13;15.20;84.40
49222;DHT22;35047;37.588;-122.048;2023-11-19T13:47:41;15.10;84.50
49222;DHT22;35047;37.588;-122.048;2023-11-19T13:50:13;15.10;84.60
49222;DHT22;35047;37.588;-122.048;2023-11-19T13:52:42;15.10;84.20
49222;DHT22;35047;37.588;-122.048;2023-11-19T13:55:09;15.10;83.90
49222;DHT22;35047;37.588;-122.048;2023-11-19T13:57:37;15.10;83.90
49222;DHT22;35047;37.588;-122.048;2023-11-19T14:00:04;15.10;83.90
49222;DHT22;35047;37.588;-122.048;2023-11-19T14:02:48;15.00;84.00
49222;DHT22;35047;37.588;-122.048;2023-11-19T14:05:15;15.00;84.20
49222;DHT22;35047;37.588;-122.048;2023-11-19T14:07:44;15.00;84.30
49222;DHT22;35047;37.588;-122.048;2023-11-19T14:10:11;15.00;84.20
49222;DHT22;35047;37.588;-122.048;2023-11-19T14:12:38;15.00;84.30
49222;DHT22;35047;37.588;-122.048;2023-11-19T14:15:06;14.90;84.30
49222;DHT22;35047;37.588;-122.048;2023-11-19T14:17:33;15.00;84.50
49222;DHT22;35047;37.588;-122.048;2023-11-19T14:20:00;15.00;84.50
49222;DHT22;35047;37.588;-122.048;2023-11-19T14:22:27;14.90;84.30
49222;DHT22;35047;37.588;-122.048;2023-11-19T14:24:53;14.90;84.50
49222;DHT22;35047;37.588;-122.048;2023-11-19T14:27:21;14.90;84.50
49222;DHT22;35047;37.588;-122.048;2023-11-19T14:29:48;14.90;84.40
49222;DHT22;35047;37.588;-122.048;2023-11-19T14:32:15;14.90;84.70
49222;DHT22;35047;37.588;-122.048;2023-11-19T14:34:41;14.90;84.70
49222;DHT22;35047;37.588;-122.048;2023-11-19T14:37:08;14.90;84.80
49222;DHT22;35047;37.588;-122.048;2023-11-19T14:39:34;14.80;84.50
49222;DHT22;35047;37.588;-122.048;2023-11-19T14:42:01;14.80;84.70
49222;DHT22;35047;37.588;-122.048;2023-11-19T14:44:30;14.80;85.10
49222;DHT22;35047;37.588;-122.048;2023-11-19T14:46:57;14.80;85.30
49222;DHT22;35047;37.588;-122.048;2023-11-19T14:49:23;14.80;85.00
49222;DHT22;35047;37.588;-122.048;2023-11-19T14:51:50;14.80;84.70
49222;DHT22;35047;37.588;-122.048;2023-11-19T14:54:17;14.80;84.80
49222;DHT22;35047;37.588;-122.048;2023-11-19T14:56:43;14.80;84.90
49222;DHT22;35047;37.588;-122.048;2023-11-19T14:59:10;14.80;85.10
49222;DHT22;35047;37.588;-122.048;2023-11-19T15:01:37;14.80;85.20
49222;DHT22;35047;37.588;-122.048;2023-11-19T15:04:03;14.80;85.70